Time;durP1;ratioP1;P1;durP2;ratioP2;P2;SDS_P1;SDS_P2;PMS_P1;PMS_P2;Temp;Humidity;BMP_temperature;BMP_pressure;BME280_temperature;BME280_humidity;BME280_pressure;Samples;Min_cycle;Max_cycle;Signal;HPM_P1;HPM_P2
2023/01/20 00:01:42;;;;;;;;;;;;;;;1.00;95.73;99816.06;5031349;28;20399;-66
2023/01/20 00:04:08;;;;;;;;;;;;;;;1.03;95.61;99795.97;5046546;28;20399;-67
2023/01/20 00:06:34;;;;;;;;;;;;;;;1.05;95.62;99800.13;5045453;28;19971;-65
2023/01/20 00:09:02;;;;;;;;;;;;;;;1.10;95.13;99802.19;5045970;28;20469;-66
2023/01/20 00:11:28;;;;;;;;;;;;;;;1.09;95.02;99806.72;5029707;28;19935;-65
2023/01/20 00:13:54;;;;;;;;;;;;;;;1.11;94.97;99798.44;5046962;28;19928;-65
2023/01/20 00:16:22;;;;;;;;;;;;;;;1.16;94.85;99805.88;5045985;28;19935;-65
2023/01/20 00:18:47;;;;;;;;;;;;;;;1.18;94.69;99807.31;5044923;28;20047;-65
2023/01/20 00:21:15;;;;;;;;;;;;;;;1.21;94.67;99798.00;5045645;28;20353;-65
2023/01/20 00:23:41;;;;;;;;;;;;;;;1.25;94.45;99804.59;5031126;28;19971;-65
2023/01/20 00:26:08;;;;;;;;;;;;;;;1.27;94.40;99803.34;5046427;28;20021;-65
2023/01/20 00:28:34;;;;;;;;;;;;;;;1.32;94.29;99809.97;5044794;28;19928;-64
2023/01/20 00:31:08;;;;;;;;;;;;;;;1.31;93.76;99814.50;5045384;28;19928;-65
2023/01/20 00:33:36;;;;;;;;;;;;;;;1.32;93.76;99794.63;5045630;28;20343;-65
2023/01/20 00:36:01;;;;;;;;;;;;;;;1.35;93.69;99809.53;5044797;28;19968;-65
2023/01/20 00:38:27;;;;;;;;;;;;;;;1.36;93.42;99812.03;5043068;28;19991;-65
2023/01/20 00:40:53;;;;;;;;;;;;;;;1.37;93.33;99813.69;5045334;28;19933;-65
2023/01/20 00:43:19;;;;;;;;;;;;;;;1.25;93.22;99794.66;5044161;28;19990;-65
2023/01/20 00:45:45;;;;;;;;;;;;;;;1.26;92.94;99790.94;5044453;28;19963;-66
2023/01/20 00:48:10;;;;;;;;;;;;;;;1.39;93.09;99813.44;5046912;28;19929;-65
2023/01/20 00:50:38;;;;;;;;;;;;;;;1.40;92.80;99801.63;5047583;28;19937;-65
2023/01/20 00:53:03;;;;;;;;;;;;;;;1.41;92.85;99812.19;5028933;28;19929;-65
2023/01/20 00:55:29;;;;;;;;;;;;;;;1.41;92.77;99803.31;5043767;28;20274;-65
2023/01/20 00:57:55;;;;;;;;;;;;;;;1.46;92.79;99802.63;5021941;28;19928;-65
2023/01/20 01:00:20;;;;;;;;;;;;;;;1.48;92.62;99801.41;5025999;28;19987;-64
2023/01/20 01:02:46;;;;;;;;;;;;;;;1.50;92.17;99801.19;5028902;28;20396;-64
2023/01/20 01:05:12;;;;;;;;;;;;;;;1.50;92.16;99804.69;5048219;28;19929;-65
2023/01/20 01:07:39;;;;;;;;;;;;;;;1.54;91.93;99811.31;5048070;28;20388;-65
2023/01/20 01:10:05;;;;;;;;;;;;;;;1.56;91.83;99824.56;5046256;28;19933;-65
2023/01/20 01:12:31;;;;;;;;;;;;;;;1.56;91.63;99808.41;5045991;28;19932;-65
2023/01/20 01:14:57;;;;;;;;;;;;;;;1.58;91.46;99810.91;5043503;28;20354;-65
2023/01/20 01:17:22;;;;;;;;;;;;;;;1.57;91.30;99801.16;5044141;28;19928;-65
2023/01/20 01:19:48;;;;;;;;;;;;;;;1.55;91.21;99807.56;5044289;28;19964;-65
2023/01/20 01:22:14;;;;;;;;;;;;;;;1.53;91.25;99793.47;5044618;28;20407;-65
2023/01/20 01:24:43;;;;;;;;;;;;;;;1.53;91.47;99793.47;5044941;28;19928;-65
2023/01/20 01:27:09;;;;;;;;;;;;;;;1.55;91.36;99810.25;5043785;28;20327;-65
2023/01/20 01:29:35;;;;;;;;;;;;;;;1.54;91.24;99813.19;5044683;28;20023;-65
2023/01/20 01:32:01;;;;;;;;;;;;;;;1.53;91.22;99803.44;5044587;28;19932;-65
2023/01/20 01:34:27;;;;;;;;;;;;;;;1.53;91.16;99806.16;5043453;28;20450;-65
2023/01/20 01:36:52;;;;;;;;;;;;;;;1.55;91.16;99804.06;5045842;28;19941;-65
2023/01/20 01:39:18;;;;;;;;;;;;;;;1.54;91.07;99788.94;5047219;28;20363;-64
2023/01/20 01:41:45;;;;;;;;;;;;;;;1.54;90.95;99802.41;5046185;28;20227;-66
2023/01/20 01:44:12;;;;;;;;;;;;;;;1.56;90.95;99800.31;5044101;28;20495;-67
2023/01/20 01:46:38;;;;;;;;;;;;;;;1.54;90.71;99797.03;5044672;28;19935;-67
2023/01/20 01:49:07;;;;;;;;;;;;;;;1.53;90.93;99806.97;5045502;28;19928;-67
2023/01/20 01:51:34;;;;;;;;;;;;;;;1.55;90.69;99802.19;5043601;28;19932;-67
2023/01/20 01:54:02;;;;;;;;;;;;;;;1.58;90.69;99798.22;5043784;28;19995;-67
2023/01/20 01:56:28;;;;;;;;;;;;;;;1.57;90.49;99806.56;5045185;28;19982;-67
2023/01/20 01:58:57;;;;;;;;;;;;;;;1.58;90.44;99808.19;5043727;28;19974;-67
2023/01/20 02:01:24;;;;;;;;;;;;;;;1.57;90.18;99810.06;5043988;28;19929;-67
2023/01/20 02:03:54;;;;;;;;;;;;;;;1.58;90.01;99810.91;5022587;28;19929;-67
2023/01/20 02:06:21;;;;;;;;;;;;;;;1.59;90.10;99817.94;5042238;28;19929;-65
2023/01/20 02:08:47;;;;;;;;;;;;;;;1.61;90.04;99795.09;5042888;28;20037;-67
2023/01/20 02:11:13;;;;;;;;;;;;;;;1.62;89.67;99818.31;5044714;28;19955;-67
2023/01/20 02:13:39;;;;;;;;;;;;;;;1.61;89.59;99805.06;5025787;28;20235;-67
2023/01/20 02:16:11;;;;;;;;;;;;;;;1.65;89.85;99799.03;5043970;28;19968;-67
2023/01/20 02:18:43;;;;;;;;;;;;;;;1.65;89.44;99787.41;5043933;28;19971;-67
2023/01/20 02:21:32;;;;;;;;;;;;;;;1.66;89.13;99794.47;5043871;28;19929;-67
2023/01/20 02:24:11;;;;;;;;;;;;;;;1.64;89.05;99802.78;5043454;28;20019;-67
2023/01/20 02:26:46;;;;;;;;;;;;;;;1.65;88.85;99800.91;5044289;28;19940;-67
2023/01/20 02:29:30;;;;;;;;;;;;;;;1.67;88.80;99810.44;5038300;28;20333;-66
2023/01/20 02:32:10;;;;;;;;;;;;;;;1.67;88.57;99804.19;5043003;28;19939;-67
2023/01/20 02:34:38;;;;;;;;;;;;;;;1.65;88.33;99803.59;5033986;28;20431;-67
2023/01/20 02:37:08;;;;;;;;;;;;;;;1.64;88.38;99820.81;5043139;28;19962;-67
2023/01/20 02:39:38;;;;;;;;;;;;;;;1.66;88.35;99807.94;5039448;28;19929;-67
2023/01/20 02:42:08;;;;;;;;;;;;;;;1.65;88.26;99809.81;5044014;28;20035;-66
2023/01/20 02:44:37;;;;;;;;;;;;;;;1.66;88.25;99818.72;5041203;28;19935;-67
2023/01/20 02:47:08;;;;;;;;;;;;;;;1.65;88.12;99815.22;5043510;28;19929;-67
2023/01/20 02:49:38;;;;;;;;;;;;;;;1.68;87.99;99803.16;5044283;28;19939;-66
2023/01/20 02:52:06;;;;;;;;;;;;;;;1.69;87.79;99804.81;5044937;28;19929;-67
2023/01/20 02:54:35;;;;;;;;;;;;;;;1.69;87.75;99815.59;5042507;28;19994;-68
2023/01/20 02:57:02;;;;;;;;;;;;;;;1.73;87.61;99826.78;5042577;28;20043;-67
2023/01/20 02:59:31;;;;;;;;;;;;;;;1.76;87.44;99815.56;5044155;28;19929;-67
2023/01/20 03:02:01;;;;;;;;;;;;;;;1.78;87.15;99818.84;5026721;28;19991;-67
2023/01/20 03:04:28;;;;;;;;;;;;;;;1.81;87.09;99813.06;5026641;28;19937;-67
2023/01/20 03:06:57;;;;;;;;;;;;;;;1.83;86.79;99824.44;5040776;28;19964;-66
2023/01/20 03:09:28;;;;;;;;;;;;;;;1.80;86.73;99822.19;5041687;28;19935;-66
2023/01/20 03:11:56;;;;;;;;;;;;;;;1.86;86.61;99828.56;5042209;28;20047;-66
2023/01/20 03:14:22;;;;;;;;;;;;;;;1.90;86.41;99837.91;5038398;28;20328;-66
2023/01/20 03:16:49;;;;;;;;;;;;;;;1.93;86.07;99832.88;5041648;28;19935;-65
2023/01/20 03:19:16;;;;;;;;;;;;;;;1.94;85.83;99858.78;5038427;28;19929;-65
2023/01/20 03:21:42;;;;;;;;;;;;;;;1.95;85.90;99838.91;5040380;28;19928;-64
2023/01/20 03:24:09;;;;;;;;;;;;;;;1.95;85.69;99852.38;5043748;28;20035;-66
2023/01/20 03:26:36;;;;;;;;;;;;;;;1.93;85.42;99834.75;5026123;28;19935;-65
2023/01/20 03:29:04;;;;;;;;;;;;;;;1.93;85.30;99842.84;5041012;28;19943;-65
2023/01/20 03:31:33;;;;;;;;;;;;;;;1.91;85.31;99843.06;5042276;28;19975;-64
2023/01/20 03:34:00;;;;;;;;;;;;;;;1.95;85.37;99856.94;5045497;28;19932;-65
2023/01/20 03:36:26;;;;;;;;;;;;;;;1.96;85.23;99861.28;5043267;28;19928;-65
2023/01/20 03:38:53;;;;;;;;;;;;;;;1.98;84.94;99861.91;5023523;28;20085;-65
2023/01/20 03:41:24;;;;;;;;;;;;;;;1.95;84.92;99852.38;5006048;28;19957;-64
2023/01/20 03:43:54;;;;;;;;;;;;;;;1.93;84.96;99859.84;5023006;28;19929;-65
2023/01/20 03:46:26;;;;;;;;;;;;;;;1.94;84.79;99866.06;5021588;28;19929;-65
2023/01/20 03:48:59;;;;;;;;;;;;;;;1.92;84.73;99863.56;5030089;28;20042;-65
2023/01/20 03:51:30;;;;;;;;;;;;;;;1.94;85.08;99861.50;5044580;28;20403;-65
2023/01/20 03:53:58;;;;;;;;;;;;;;;1.96;85.08;99870.22;5046234;28;19982;-64
2023/01/20 03:56:28;;;;;;;;;;;;;;;1.97;84.81;99869.19;5045076;28;19929;-64
2023/01/20 03:58:57;;;;;;;;;;;;;;;1.97;84.47;99871.03;5046233;28;19929;-66
2023/01/20 04:01:31;;;;;;;;;;;;;;;1.97;84.62;99876.44;5031421;28;19929;-67
2023/01/20 04:03:58;;;;;;;;;;;;;;;1.98;84.67;99881.63;5046519;28;20315;-68
2023/01/20 04:06:25;;;;;;;;;;;;;;;2.01;84.57;99871.44;5046050;28;20403;-66
2023/01/20 04:08:54;;;;;;;;;;;;;;;2.01;84.41;99882.22;5028869;28;19932;-66
2023/01/20 04:11:19;;;;;;;;;;;;;;;2.00;84.20;99867.09;5045509;28;20399;-66
2023/01/20 04:13:48;;;;;;;;;;;;;;;1.97;83.86;99871.88;5028347;28;20078;-66
2023/01/20 04:16:15;;;;;;;;;;;;;;;1.97;84.06;99868.34;5044303;28;20521;-66
2023/01/20 04:18:42;;;;;;;;;;;;;;;2.00;84.11;99870.59;5043268;28;19980;-66
2023/01/20 04:21:10;;;;;;;;;;;;;;;2.01;83.89;99868.72;5027694;28;20342;-67
2023/01/20 04:23:38;;;;;;;;;;;;;;;2.01;83.87;99876.81;5046367;28;19928;-67
2023/01/20 04:26:04;;;;;;;;;;;;;;;2.01;83.55;99877.63;5042950;28;19935;-66
2023/01/20 04:28:31;;;;;;;;;;;;;;;2.02;83.58;99871.19;5034356;28;20015;-67
2023/01/20 04:30:58;;;;;;;;;;;;;;;2.00;83.40;99867.09;5046525;28;20311;-66
2023/01/20 04:33:24;;;;;;;;;;;;;;;1.97;83.49;99863.78;5046576;28;20364;-67
2023/01/20 04:35:50;;;;;;;;;;;;;;;1.98;83.49;99875.38;5047499;28;19998;-67
2023/01/20 04:38:15;;;;;;;;;;;;;;;1.98;83.44;99875.38;5027906;28;20342;-67
2023/01/20 04:40:41;;;;;;;;;;;;;;;2.00;83.45;99873.28;5046626;28;19990;-67
2023/01/20 04:43:08;;;;;;;;;;;;;;;1.99;83.45;99868.94;5046648;28;19929;-67
2023/01/20 04:45:34;;;;;;;;;;;;;;;2.01;83.39;99885.72;5046871;28;19929;-66
2023/01/20 04:48:04;;;;;;;;;;;;;;;2.00;83.00;99886.78;5046280;28;20306;-65
2023/01/20 04:50:29;;;;;;;;;;;;;;;1.98;83.03;99886.16;5045856;28;19929;-65
2023/01/20 04:52:55;;;;;;;;;;;;;;;1.98;83.14;99887.00;5049149;28;20350;-65
2023/01/20 04:55:21;;;;;;;;;;;;;;;2.00;82.94;99884.06;5047201;28;19987;-65
2023/01/20 04:57:47;;;;;;;;;;;;;;;2.01;82.73;99890.31;5045980;28;19930;-65
2023/01/20 05:00:18;;;;;;;;;;;;;;;2.00;82.87;99911.03;5043741;28;20423;-65
2023/01/20 05:02:44;;;;;;;;;;;;;;;1.98;82.86;99894.25;5045319;28;19932;-66
2023/01/20 05:05:12;;;;;;;;;;;;;;;1.98;82.80;99903.19;5045765;28;20449;-65
2023/01/20 05:07:38;;;;;;;;;;;;;;;1.99;82.93;99895.91;5045557;28;19971;-65
2023/01/20 05:10:04;;;;;;;;;;;;;;;2.00;83.11;99900.25;5048139;28;19929;-66
2023/01/20 05:12:30;;;;;;;;;;;;;;;2.00;82.89;99896.75;5048685;28;19932;-67
2023/01/20 05:14:56;;;;;;;;;;;;;;;2.01;82.92;99919.97;5045242;28;20446;-67
2023/01/20 05:17:22;;;;;;;;;;;;;;;2.02;82.63;99918.94;5046057;28;19929;-66
2023/01/20 05:19:47;;;;;;;;;;;;;;;2.03;82.88;99928.69;5041984;28;19944;-67
2023/01/20 05:22:15;;;;;;;;;;;;;;;2.05;82.71;99919.34;5044297;28;20415;-67
2023/01/20 05:24:40;;;;;;;;;;;;;;;2.06;82.32;99918.28;5045323;28;20039;-69
2023/01/20 05:27:06;;;;;;;;;;;;;;;1.89;82.28;99904.47;5042215;28;20439;-68
2023/01/20 05:29:32;;;;;;;;;;;;;;;2.01;82.21;99920.78;5045522;28;20353;-68
2023/01/20 05:31:58;;;;;;;;;;;;;;;1.99;82.43;99895.91;5047534;28;20308;-68
2023/01/20 05:34:24;;;;;;;;;;;;;;;2.01;82.33;99919.97;5047328;28;19929;-65
2023/01/20 05:36:50;;;;;;;;;;;;;;;1.98;82.46;99929.31;5044148;28;20396;-66
2023/01/20 05:39:17;;;;;;;;;;;;;;;1.93;82.57;99918.34;5043535;28;19990;-65
2023/01/20 05:41:45;;;;;;;;;;;;;;;2.01;82.49;99926.19;5041905;28;19982;-65
2023/01/20 05:44:11;;;;;;;;;;;;;;;2.03;82.39;99921.44;5016950;28;19971;-65
2023/01/20 05:46:36;;;;;;;;;;;;;;;2.02;82.15;99914.34;5016597;28;19979;-66
2023/01/20 05:49:02;;;;;;;;;;;;;;;1.98;82.11;99924.78;5030030;28;19929;-67
2023/01/20 05:51:28;;;;;;;;;;;;;;;1.96;82.35;99921.47;5036421;28;20031;-67
2023/01/20 05:53:54;;;;;;;;;;;;;;;1.94;82.44;99920.81;5037744;28;19963;-67
2023/01/20 05:56:21;;;;;;;;;;;;;;;1.96;82.18;99915.22;5036805;28;20651;-67
2023/01/20 05:58:47;;;;;;;;;;;;;;;1.95;82.21;99919.81;5044417;28;19929;-67
2023/01/20 06:01:13;;;;;;;;;;;;;;;1.97;82.12;99927.66;5044638;28;19935;-67
2023/01/20 06:03:39;;;;;;;;;;;;;;;1.96;82.30;99918.78;5027882;28;20027;-67
2023/01/20 06:06:06;;;;;;;;;;;;;;;1.95;82.13;99924.38;5045848;28;19936;-66
2023/01/20 06:08:32;;;;;;;;;;;;;;;1.93;82.26;99948.84;5044469;28;19955;-67
2023/01/20 06:10:58;;;;;;;;;;;;;;;1.94;82.32;99941.59;5042307;28;19929;-68
2023/01/20 06:13:25;;;;;;;;;;;;;;;1.94;82.39;99936.19;5043691;28;19940;-68
2023/01/20 06:15:52;;;;;;;;;;;;;;;2.01;82.32;99945.06;5043691;28;19951;-68
2023/01/20 06:18:18;;;;;;;;;;;;;;;2.04;81.99;99949.22;5044454;28;19932;-68
2023/01/20 06:20:43;;;;;;;;;;;;;;;2.01;81.98;99947.75;5043094;28;19929;-68
2023/01/20 06:23:09;;;;;;;;;;;;;;;2.00;82.09;99959.59;5043994;28;19932;-68
2023/01/20 06:25:35;;;;;;;;;;;;;;;2.00;82.11;99950.69;5039935;28;20027;-68
2023/01/20 06:28:00;;;;;;;;;;;;;;;1.98;82.07;99934.72;5020873;28;19928;-68
2023/01/20 06:30:28;;;;;;;;;;;;;;;1.97;82.07;99943.84;5045813;28;19929;-68
2023/01/20 06:32:54;;;;;;;;;;;;;;;1.98;82.06;99934.72;5048113;28;20296;-68
2023/01/20 06:35:19;;;;;;;;;;;;;;;2.00;81.98;99948.81;5047786;28;19935;-68
2023/01/20 06:37:45;;;;;;;;;;;;;;;2.01;81.85;99963.94;5047725;28;20371;-68
2023/01/20 06:40:12;;;;;;;;;;;;;;;2.01;81.66;99963.13;5048252;28;20338;-68
2023/01/20 06:42:38;;;;;;;;;;;;;;;2.02;81.69;99962.09;5047021;28;20351;-68
2023/01/20 06:45:04;;;;;;;;;;;;;;;1.98;81.95;99950.91;5045260;28;19933;-68
2023/01/20 06:47:31;;;;;;;;;;;;;;;1.95;82.04;99960.25;5048365;28;19933;-68
2023/01/20 06:49:57;;;;;;;;;;;;;;;1.91;82.18;99956.31;5044848;28;19935;-67
2023/01/20 06:52:23;;;;;;;;;;;;;;;1.94;82.42;99972.06;5047204;28;20287;-67
2023/01/20 06:54:48;;;;;;;;;;;;;;;2.02;82.18;99973.69;5047022;28;19929;-67
2023/01/20 06:57:14;;;;;;;;;;;;;;;2.05;81.59;99980.53;5048857;28;20388;-67
2023/01/20 06:59:40;;;;;;;;;;;;;;;2.03;81.53;99980.78;5045017;28;19956;-67
2023/01/20 07:02:07;;;;;;;;;;;;;;;2.05;81.52;99994.03;5048022;28;19933;-68
2023/01/20 07:04:34;;;;;;;;;;;;;;;2.04;81.27;100004.00;5047998;28;19936;-67
2023/01/20 07:07:00;;;;;;;;;;;;;;;2.03;81.33;100021.25;5048412;28;19929;-67
2023/01/20 07:09:26;;;;;;;;;;;;;;;2.04;81.36;100013.97;5032882;28;19928;-67
2023/01/20 07:11:52;;;;;;;;;;;;;;;2.09;81.56;100020.38;5052758;28;20384;-67
2023/01/20 07:14:17;;;;;;;;;;;;;;;2.14;81.36;100027.84;5051471;28;19975;-70
2023/01/20 07:16:44;;;;;;;;;;;;;;;2.17;81.12;100024.69;5047626;28;19928;-68
2023/01/20 07:19:11;;;;;;;;;;;;;;;2.18;80.80;100020.13;5046648;28;20023;-67
2023/01/20 07:21:38;;;;;;;;;;;;;;;2.15;80.94;100018.69;5048107;28;19939;-66
2023/01/20 07:24:04;;;;;;;;;;;;;;;2.13;81.11;100018.91;5051047;28;19929;-65
2023/01/20 07:26:30;;;;;;;;;;;;;;;2.13;80.98;100027.00;5051791;28;19928;-65
2023/01/20 07:28:56;;;;;;;;;;;;;;;2.16;81.08;100016.81;5050165;28;20100;-65
2023/01/20 07:31:23;;;;;;;;;;;;;;;2.18;80.93;100020.97;5032973;28;20031;-65
2023/01/20 07:33:49;;;;;;;;;;;;;;;2.18;80.70;100026.34;5052261;28;19971;-65
2023/01/20 07:36:15;;;;;;;;;;;;;;;2.20;80.67;100028.84;5050248;28;20243;-66
2023/01/20 07:38:45;;;;;;;;;;;;;;;2.22;80.35;100022.19;5050523;28;19935;-67
2023/01/20 07:41:14;;;;;;;;;;;;;;;2.24;80.28;100033.59;5050349;28;20565;-68
2023/01/20 07:43:41;;;;;;;;;;;;;;;2.23;80.21;100042.72;5050474;28;19968;-68
2023/01/20 07:46:07;;;;;;;;;;;;;;;2.20;80.37;100037.75;5050400;28;20387;-68
2023/01/20 07:48:33;;;;;;;;;;;;;;;2.20;80.54;100040.47;5034589;28;19935;-68
2023/01/20 07:51:04;;;;;;;;;;;;;;;2.22;80.43;100037.56;5048139;28;19929;-67
2023/01/20 07:53:30;;;;;;;;;;;;;;;2.21;80.33;100039.41;5050224;28;19929;-67
2023/01/20 07:56:01;;;;;;;;;;;;;;;2.23;80.27;100036.50;5051068;28;19951;-68
2023/01/20 07:58:27;;;;;;;;;;;;;;;2.28;80.03;100036.69;5050745;28;19955;-68
2023/01/20 08:00:53;;;;;;;;;;;;;;;2.29;79.68;100032.13;5048295;28;19929;-69
2023/01/20 08:03:18;;;;;;;;;;;;;;;2.29;79.88;100035.66;5051612;28;19935;-65
2023/01/20 08:05:44;;;;;;;;;;;;;;;2.31;79.61;100038.94;5050851;28;20581;-65
2023/01/20 08:08:10;;;;;;;;;;;;;;;2.37;79.89;100031.88;5050247;28;19956;-66
2023/01/20 08:10:36;;;;;;;;;;;;;;;2.39;79.50;100029.78;5049111;28;19929;-66
2023/01/20 08:13:03;;;;;;;;;;;;;;;2.37;79.39;100030.03;5050274;28;19928;-66
2023/01/20 08:15:29;;;;;;;;;;;;;;;2.39;79.34;100032.47;5031189;28;19955;-66
2023/01/20 08:17:56;;;;;;;;;;;;;;;2.34;79.16;100029.59;5049601;28;20377;-69
2023/01/20 08:20:22;;;;;;;;;;;;;;;2.31;79.30;100035.44;5051361;28;19956;-66
2023/01/20 08:22:48;;;;;;;;;;;;;;;2.30;79.36;100034.59;5050695;28;19991;-65
2023/01/20 08:25:14;;;;;;;;;;;;;;;2.29;79.36;100029.44;5050744;28;19928;-65
2023/01/20 08:27:40;;;;;;;;;;;;;;;2.31;79.27;100030.84;5049735;28;19936;-66
2023/01/20 08:30:08;;;;;;;;;;;;;;;2.32;79.32;100039.78;5047904;28;19929;-66
2023/01/20 08:32:34;;;;;;;;;;;;;;;2.30;78.96;100031.91;5048206;28;19928;-67
2023/01/20 08:34:59;;;;;;;;;;;;;;;2.33;79.06;100034.16;5028867;28;19936;-66
2023/01/20 08:37:25;;;;;;;;;;;;;;;2.34;78.99;100051.19;5039922;28;19928;-66
2023/01/20 08:39:51;;;;;;;;;;;;;;;2.34;78.97;100033.16;5048987;28;19928;-68
2023/01/20 08:42:17;;;;;;;;;;;;;;;2.38;78.74;100020.88;5049955;28;19929;-68
2023/01/20 08:44:43;;;;;;;;;;;;;;;2.41;78.81;100031.22;5034552;28;20566;-66
2023/01/20 08:47:10;;;;;;;;;;;;;;;2.47;78.65;100026.84;5051196;28;19936;-67
2023/01/20 08:49:36;;;;;;;;;;;;;;;2.51;78.28;100027.25;5049022;28;19935;-67
2023/01/20 08:52:02;;;;;;;;;;;;;;;2.50;77.94;100023.72;5050563;28;19932;-67
2023/01/20 08:54:33;;;;;;;;;;;;;;;2.53;78.06;100034.06;5048850;28;19929;-67
2023/01/20 08:56:59;;;;;;;;;;;;;;;2.56;77.59;100024.72;5049290;28;19928;-68
2023/01/20 08:59:24;;;;;;;;;;;;;;;2.59;77.54;100031.56;5048347;28;19929;-67
2023/01/20 09:01:50;;;;;;;;;;;;;;;2.60;77.52;100033.22;5048501;28;19933;-67
2023/01/20 09:04:18;;;;;;;;;;;;;;;2.63;77.45;100054.38;5033741;28;19933;-67
2023/01/20 09:06:45;;;;;;;;;;;;;;;2.64;77.19;100046.06;5048245;28;20453;-67
2023/01/20 09:09:11;;;;;;;;;;;;;;;2.64;77.06;100046.06;5048209;28;19932;-67
2023/01/20 09:11:38;;;;;;;;;;;;;;;2.64;77.22;100045.25;5051058;28;20031;-67
2023/01/20 09:14:04;;;;;;;;;;;;;;;2.64;76.96;100056.03;5049131;28;19928;-67
2023/01/20 09:16:29;;;;;;;;;;;;;;;2.60;77.16;100063.75;5049861;28;19959;-68
2023/01/20 09:18:55;;;;;;;;;;;;;;;2.62;77.44;100058.94;5049410;28;20293;-67
2023/01/20 09:21:22;;;;;;;;;;;;;;;2.66;77.14;100059.34;5027120;28;20036;-68
2023/01/20 09:23:48;;;;;;;;;;;;;;;2.67;76.95;100061.84;5037857;28;19933;-67
2023/01/20 09:26:14;;;;;;;;;;;;;;;2.63;76.90;100071.41;5047636;28;19932;-68
2023/01/20 09:28:44;;;;;;;;;;;;;;;2.63;77.10;100070.59;5047558;28;19929;-67
2023/01/20 09:31:10;;;;;;;;;;;;;;;2.65;76.93;100065.78;5048219;28;20438;-67
2023/01/20 09:33:37;;;;;;;;;;;;;;;2.67;77.13;100061.84;5031927;28;19932;-67
2023/01/20 09:36:04;;;;;;;;;;;;;;;2.58;76.73;100054.22;5030903;28;19968;-68
2023/01/20 09:44:08;;;;;;;;;;;;;;;2.79;76.45;100082.75;5042156;28;20323;-65
2023/01/20 09:46:41;;;;;;;;;;;;;;;2.76;76.46;100083.19;5016723;28;19929;-65
2023/01/20 09:54:53;;;;;;;;;;;;;;;2.86;76.30;100082.72;5028550;28;19936;-66
2023/01/20 09:57:20;;;;;;;;;;;;;;;2.93;76.25;100089.72;5036938;28;20301;-65
2023/01/20 09:59:48;;;;;;;;;;;;;;;3.00;75.75;100088.88;5013264;28;19998;-65
2023/01/20 10:02:16;;;;;;;;;;;;;;;3.01;75.73;100093.22;5049443;28;19928;-65
2023/01/20 10:04:44;;;;;;;;;;;;;;;3.04;75.81;100104.41;5046408;28;19933;-65
2023/01/20 10:07:12;;;;;;;;;;;;;;;3.10;75.51;100086.50;5047200;28;20362;-66
2023/01/20 10:09:41;;;;;;;;;;;;;;;3.12;75.14;100097.91;5046672;28;20063;-65
2023/01/20 10:12:12;;;;;;;;;;;;;;;3.16;74.87;100106.44;5044899;28;19974;-65
2023/01/20 10:14:39;;;;;;;;;;;;;;;3.15;74.86;100091.25;5047035;28;20370;-66
2023/01/20 10:17:08;;;;;;;;;;;;;;;3.17;75.08;100097.28;5047741;28;19928;-65
2023/01/20 10:19:36;;;;;;;;;;;;;;;3.22;75.02;100102.88;5046255;28;20320;-65
2023/01/20 10:22:06;;;;;;;;;;;;;;;3.28;74.81;100091.16;5037277;28;20316;-65
2023/01/20 10:24:35;;;;;;;;;;;;;;;3.31;74.11;100096.13;5047384;28;19978;-66
2023/01/20 10:27:01;;;;;;;;;;;;;;;3.33;74.06;100096.75;5031122;28;20324;-66
2023/01/20 10:29:33;;;;;;;;;;;;;;;3.34;74.13;100106.50;5048164;28;20324;-65
2023/01/20 10:32:00;;;;;;;;;;;;;;;3.37;74.08;100097.13;5047647;28;19929;-66
2023/01/20 10:34:29;;;;;;;;;;;;;;;3.37;74.38;100097.97;5046865;28;19983;-66
2023/01/20 10:36:59;;;;;;;;;;;;;;;3.46;74.21;100098.53;5046695;28;19960;-65
2023/01/20 10:39:28;;;;;;;;;;;;;;;3.46;73.75;100103.09;5046912;28;20036;-65
2023/01/20 10:41:58;;;;;;;;;;;;;;;3.44;73.80;100099.78;5048448;28;20387;-66
2023/01/20 10:44:24;;;;;;;;;;;;;;;3.45;73.64;100093.31;5026567;28;20020;-65
2023/01/20 10:46:59;;;;;;;;;;;;;;;3.43;73.81;100098.94;5044276;28;19951;-65
2023/01/20 10:49:42;;;;;;;;;;;;;;;3.47;73.95;100099.34;5030648;28;19928;-65
2023/01/20 10:52:17;;;;;;;;;;;;;;;3.51;73.80;100108.66;5047633;28;19928;-65
2023/01/20 10:54:46;;;;;;;;;;;;;;;3.51;73.47;100106.78;5048236;28;19935;-66
2023/01/20 10:57:14;;;;;;;;;;;;;;;3.53;73.73;100109.28;5047465;28;19979;-65
2023/01/20 10:59:42;;;;;;;;;;;;;;;3.58;73.17;100098.63;5050509;28;19928;-66
2023/01/20 11:02:13;;;;;;;;;;;;;;;3.63;73.07;100106.91;5052898;28;20402;-66
2023/01/20 11:04:40;;;;;;;;;;;;;;;3.67;72.92;100097.31;5051742;28;19950;-66
2023/01/20 11:07:11;;;;;;;;;;;;;;;3.65;72.56;100101.28;5050278;28;20333;-65
2023/01/20 11:09:37;;;;;;;;;;;;;;;3.61;72.71;100100.06;5050953;28;19932;-65
2023/01/20 11:12:05;;;;;;;;;;;;;;;3.57;72.89;100109.66;5048574;28;19940;-65
2023/01/20 11:14:32;;;;;;;;;;;;;;;3.52;73.08;100107.63;5050415;28;19928;-65
2023/01/20 11:17:01;;;;;;;;;;;;;;;3.41;73.39;100114.56;5053768;28;19929;-65
2023/01/20 11:19:42;;;;;;;;;;;;;;;3.34;73.62;100122.72;5048872;28;19936;-65
2023/01/20 11:22:10;;;;;;;;;;;;;;;3.29;74.04;100119.03;5033383;28;19929;-65
2023/01/20 11:24:40;;;;;;;;;;;;;;;3.29;73.93;100117.16;5049907;28;20413;-65
2023/01/20 11:27:10;;;;;;;;;;;;;;;3.29;74.01;100127.16;5033734;28;19929;-67
2023/01/20 11:29:39;;;;;;;;;;;;;;;3.22;73.95;100122.59;5051714;28;20443;-66
2023/01/20 11:32:22;;;;;;;;;;;;;;;3.22;74.17;100117.19;5049966;28;19982;-67
2023/01/20 11:34:49;;;;;;;;;;;;;;;3.26;74.17;100121.09;5050278;28;20421;-68
2023/01/20 11:37:16;;;;;;;;;;;;;;;3.28;74.22;100120.06;5051265;28;19933;-67
2023/01/20 11:39:57;;;;;;;;;;;;;;;3.32;74.12;100116.72;5048800;28;19941;-67
2023/01/20 11:42:23;;;;;;;;;;;;;;;3.36;73.68;100127.91;5049889;28;20021;-67
2023/01/20 11:44:50;;;;;;;;;;;;;;;3.36;73.70;100112.53;5050424;28;19983;-67
2023/01/20 11:47:23;;;;;;;;;;;;;;;3.42;73.44;100121.63;5049518;28;20027;-67
2023/01/20 11:50:19;;;;;;;;;;;;;;;3.51;73.41;100119.47;5049518;28;19949;-68
2023/01/20 11:52:46;;;;;;;;;;;;;;;3.61;72.99;100121.72;4991285;28;19929;-65
2023/01/20 11:55:18;;;;;;;;;;;;;;;3.61;72.54;100119.81;5036393;28;19929;-65
2023/01/20 11:57:45;;;;;;;;;;;;;;;3.57;72.45;100123.19;5032783;28;19964;-65
2023/01/20 12:00:32;;;;;;;;;;;;;;;3.56;72.42;100114.25;5049489;28;19929;-65
2023/01/20 12:02:59;;;;;;;;;;;;;;;3.52;72.61;100134.69;5046158;28;19932;-65
2023/01/20 12:05:28;;;;;;;;;;;;;;;3.49;72.67;100126.97;5051754;28;20415;-65
2023/01/20 12:07:55;;;;;;;;;;;;;;;3.48;72.85;100136.13;5049451;28;19979;-65
2023/01/20 12:10:23;;;;;;;;;;;;;;;3.43;72.88;100141.38;5051634;28;19928;-65
2023/01/20 12:12:51;;;;;;;;;;;;;;;3.35;73.16;100145.19;5052060;28;19928;-65
2023/01/20 12:15:18;;;;;;;;;;;;;;;3.30;73.38;100139.63;5049876;28;20192;-65
2023/01/20 12:17:50;;;;;;;;;;;;;;;3.26;73.67;100150.84;5047506;28;19983;-65
2023/01/20 12:20:20;;;;;;;;;;;;;;;3.31;73.49;100163.72;5049545;28;20035;-65
2023/01/20 12:22:56;;;;;;;;;;;;;;;3.33;73.55;100152.69;5051335;28;19974;-65
2023/01/20 12:25:26;;;;;;;;;;;;;;;3.35;73.40;100164.09;5050339;28;19929;-65
2023/01/20 12:27:54;;;;;;;;;;;;;;;3.34;73.39;100162.44;5050611;28;19932;-65
2023/01/20 12:30:29;;;;;;;;;;;;;;;3.30;73.57;100172.88;5048886;28;19982;-65
2023/01/20 12:32:55;;;;;;;;;;;;;;;3.34;73.68;100171.38;5049570;28;20379;-67
2023/01/20 12:35:22;;;;;;;;;;;;;;;3.37;73.27;100168.25;5049527;28;20071;-65
2023/01/20 12:37:51;;;;;;;;;;;;;;;3.36;73.23;100163.91;5049584;28;19935;-65
2023/01/20 12:40:25;;;;;;;;;;;;;;;3.42;73.26;100172.19;5049335;28;19936;-65
2023/01/20 12:43:06;;;;;;;;;;;;;;;3.37;73.35;100183.63;5049683;28;19975;-67
2023/01/20 12:45:39;;;;;;;;;;;;;;;3.34;73.36;100174.06;5049093;28;19929;-67
2023/01/20 12:48:12;;;;;;;;;;;;;;;3.33;73.35;100171.59;5049024;28;20306;-65
2023/01/20 12:50:48;;;;;;;;;;;;;;;3.30;73.37;100180.16;5048605;28;20470;-66
2023/01/20 12:53:21;;;;;;;;;;;;;;;3.26;73.67;100171.66;5049897;28;19928;-65
2023/01/20 12:55:51;;;;;;;;;;;;;;;3.24;73.61;100174.56;5032789;28;19970;-65
2023/01/20 12:58:23;;;;;;;;;;;;;;;3.15;73.63;100166.94;5045598;28;19932;-65
2023/01/20 13:00:54;;;;;;;;;;;;;;;3.10;73.79;100163.00;5047009;28;19935;-66
2023/01/20 13:03:54;;;;;;;;;;;;;;;3.07;73.66;100174.25;5048754;28;19963;-65
2023/01/20 13:06:36;;;;;;;;;;;;;;;3.01;73.79;100177.00;4988169;28;19940;-65
2023/01/20 13:09:07;;;;;;;;;;;;;;;2.96;73.79;100181.13;4996763;28;20016;-68